createdAt,value
2023-10-25T00:01:12.881Z,6.04
2023-10-25T00:03:39.646Z,6.05
2023-10-25T00:06:06.535Z,5.95
2023-10-25T00:08:33.004Z,6.00
2023-10-25T00:11:07.756Z,5.86
2023-10-25T00:13:34.998Z,5.87
2023-10-25T00:16:02.604Z,5.87
2023-10-25T00:18:29.549Z,5.81
2023-10-25T00:20:56.214Z,5.81
2023-10-25T00:23:23.467Z,5.83
2023-10-25T00:25:51.136Z,5.88
2023-10-25T00:28:18.698Z,5.84
2023-10-25T00:30:45.782Z,5.85
2023-10-25T00:33:12.646Z,5.89
2023-10-25T00:35:39.719Z,5.89
2023-10-25T00:38:06.462Z,5.88
2023-10-25T00:40:33.002Z,5.85
2023-10-25T00:43:15.736Z,5.74
2023-10-25T00:45:57.219Z,5.72
2023-10-25T00:48:24.730Z,5.78
2023-10-25T00:50:52.431Z,5.66
2023-10-25T00:53:19.509Z,5.70
2023-10-25T00:55:46.692Z,5.74
2023-10-25T00:58:13.604Z,5.74
2023-10-25T01:00:40.602Z,5.71
2023-10-25T01:03:08.457Z,5.74
2023-10-25T01:05:35.984Z,5.71
2023-10-25T01:08:02.784Z,5.59
2023-10-25T01:10:29.544Z,5.56
2023-10-25T01:12:56.306Z,5.61
2023-10-25T01:15:26.153Z,5.57
2023-10-25T01:17:53.106Z,5.57
2023-10-25T01:20:20.362Z,5.64
2023-10-25T01:22:48.627Z,5.62
2023-10-25T01:25:15.964Z,5.74
2023-10-25T01:27:42.675Z,5.77
2023-10-25T01:30:09.861Z,5.77
2023-10-25T01:32:36.515Z,5.71
2023-10-25T01:35:03.080Z,5.66
2023-10-25T01:37:29.853Z,5.70
2023-10-25T01:39:56.382Z,5.77
2023-10-25T01:42:22.950Z,5.79
2023-10-25T01:44:49.447Z,5.78
2023-10-25T01:47:15.902Z,5.81
2023-10-25T01:49:44.307Z,5.77
2023-10-25T01:52:10.901Z,5.76
2023-10-25T01:54:37.657Z,5.79
2023-10-25T01:57:04.531Z,5.49
2023-10-25T01:59:31.126Z,5.77
2023-10-25T02:01:57.889Z,5.76
2023-10-25T02:04:24.759Z,5.77
2023-10-25T02:06:53.280Z,5.78
2023-10-25T02:09:20.658Z,5.49
2023-10-25T02:11:48.006Z,5.64
2023-10-25T02:14:15.100Z,5.66
2023-10-25T02:16:43.142Z,5.60
2023-10-25T02:19:10.229Z,5.60
2023-10-25T02:21:37.246Z,5.64
2023-10-25T02:24:05.694Z,5.59
2023-10-25T02:26:32.849Z,5.54
2023-10-25T02:29:01.012Z,5.54
2023-10-25T02:31:27.576Z,5.58
2023-10-25T02:33:54.188Z,5.45
2023-10-25T02:36:20.706Z,5.43
2023-10-25T02:38:50.609Z,5.32
2023-10-25T02:41:17.288Z,5.29
2023-10-25T02:43:44.939Z,5.30
2023-10-25T02:46:13.564Z,5.28
2023-10-25T02:48:40.543Z,5.26
2023-10-25T02:51:07.271Z,5.25
2023-10-25T02:53:34.082Z,5.36
2023-10-25T02:56:05.544Z,5.24
2023-10-25T02:58:32.853Z,5.09
2023-10-25T03:01:00.158Z,4.94
2023-10-25T03:03:34.801Z,4.84
2023-10-25T03:06:01.477Z,4.92
2023-10-25T03:08:28.972Z,4.93
2023-10-25T03:10:56.476Z,4.99
2023-10-25T03:13:23.493Z,4.91
2023-10-25T03:15:50.249Z,4.76
2023-10-25T03:18:16.910Z,4.91
2023-10-25T03:20:43.597Z,4.77
2023-10-25T03:23:10.233Z,4.87
2023-10-25T03:25:36.792Z,4.79
2023-10-25T03:28:03.376Z,4.64
2023-10-25T03:30:30.099Z,4.74
2023-10-25T03:32:56.605Z,4.71
2023-10-25T03:35:23.319Z,4.59
2023-10-25T03:37:49.827Z,4.53
2023-10-25T03:40:16.454Z,4.53
2023-10-25T03:42:43.068Z,4.44
2023-10-25T03:45:10.615Z,4.54
2023-10-25T03:47:38.891Z,4.45
2023-10-25T03:50:07.917Z,4.48
2023-10-25T03:52:37.385Z,4.59
2023-10-25T03:55:04.424Z,4.52
2023-10-25T03:57:30.994Z,4.46
2023-10-25T03:59:57.663Z,4.41
2023-10-25T04:02:24.219Z,4.43
2023-10-25T04:04:50.743Z,4.31
2023-10-25T04:07:17.230Z,4.31
2023-10-25T04:09:43.964Z,4.31
2023-10-25T04:12:13.661Z,4.37
2023-10-25T04:14:45.549Z,4.31
2023-10-25T04:17:12.790Z,4.39
2023-10-25T04:19:40.227Z,4.35
2023-10-25T04:22:06.966Z,4.31
2023-10-25T04:24:34.107Z,4.33
2023-10-25T04:27:03.010Z,4.44
2023-10-25T04:29:29.819Z,4.45
2023-10-25T04:31:57.056Z,4.36
2023-10-25T04:34:23.990Z,4.28
2023-10-25T04:36:50.807Z,4.25
2023-10-25T04:39:17.390Z,4.20
2023-10-25T04:41:44.081Z,4.21
2023-10-25T04:44:10.580Z,4.18
2023-10-25T04:46:37.364Z,4.13
2023-10-25T04:49:04.356Z,4.12
2023-10-25T04:51:31.140Z,4.04
2023-10-25T04:53:57.882Z,4.10
2023-10-25T04:56:24.664Z,4.24
2023-10-25T04:58:51.220Z,4.25
2023-10-25T05:01:17.932Z,4.29
2023-10-25T05:03:46.020Z,4.40
2023-10-25T05:06:13.226Z,4.45
2023-10-25T05:08:39.990Z,4.49
2023-10-25T05:11:08.932Z,4.58
2023-10-25T05:13:35.732Z,4.64
2023-10-25T05:16:02.792Z,4.61
2023-10-25T05:18:29.744Z,4.72
2023-10-25T05:21:03.160Z,4.81
2023-10-25T05:23:34.313Z,4.81
2023-10-25T05:26:02.987Z,4.95
2023-10-25T05:28:30.975Z,5.06
2023-10-25T05:31:01.964Z,5.13
2023-10-25T05:33:31.052Z,5.16
2023-10-25T05:35:58.874Z,5.09
2023-10-25T05:38:25.570Z,5.25
2023-10-25T05:40:54.834Z,5.24
2023-10-25T05:43:28.702Z,5.34
2023-10-25T05:45:55.997Z,5.44
2023-10-25T05:48:22.951Z,5.53
2023-10-25T05:50:51.626Z,5.44
2023-10-25T05:53:20.046Z,5.50
2023-10-25T05:55:47.534Z,5.52
2023-10-25T05:58:14.607Z,5.55
2023-10-25T06:00:41.691Z,5.53
2023-10-25T06:03:21.450Z,5.57
2023-10-25T06:06:01.634Z,5.61
2023-10-25T06:08:29.207Z,5.62
2023-10-25T06:10:56.333Z,5.63
2023-10-25T06:13:23.280Z,5.68
2023-10-25T06:15:50.073Z,5.66
2023-10-25T06:18:17.274Z,5.70
2023-10-25T06:20:44.004Z,5.71
2023-10-25T06:23:10.605Z,5.78
2023-10-25T06:25:37.242Z,5.82
2023-10-25T06:28:04.042Z,5.83
2023-10-25T06:30:30.767Z,5.91
2023-10-25T06:33:00.573Z,5.87
2023-10-25T06:35:27.128Z,5.92
2023-10-25T06:37:53.975Z,5.94
2023-10-25T06:40:21.103Z,5.87
2023-10-25T06:42:47.971Z,5.94
2023-10-25T06:45:15.928Z,5.99
2023-10-25T06:47:46.004Z,5.80
2023-10-25T06:50:14.459Z,6.07
2023-10-25T06:52:41.587Z,6.00
2023-10-25T06:55:09.016Z,5.97
2023-10-25T06:57:36.883Z,6.18
2023-10-25T07:00:07.792Z,6.21
2023-10-25T07:02:39.034Z,6.15
2023-10-25T07:05:12.533Z,6.24
2023-10-25T07:07:40.979Z,6.33
2023-10-25T07:10:09.654Z,6.36
2023-10-25T07:12:36.876Z,6.40
2023-10-25T07:15:03.934Z,6.54
2023-10-25T07:17:30.734Z,6.56
2023-10-25T07:19:59.659Z,6.54
2023-10-25T07:22:29.320Z,6.55
2023-10-25T07:24:56.859Z,6.60
2023-10-25T07:27:23.882Z,6.56
2023-10-25T07:29:50.729Z,6.64
2023-10-25T07:32:17.298Z,6.71
2023-10-25T07:34:44.230Z,6.76
2023-10-25T07:37:11.133Z,6.98
2023-10-25T07:39:37.754Z,7.32
2023-10-25T07:42:04.542Z,7.52
2023-10-25T07:44:31.089Z,7.55
2023-10-25T07:46:57.757Z,7.62
2023-10-25T07:49:24.437Z,7.46
2023-10-25T07:51:53.064Z,7.51
2023-10-25T07:54:21.748Z,7.54
2023-10-25T07:57:07.310Z,7.47
2023-10-25T07:59:35.200Z,7.48
2023-10-25T08:02:01.649Z,7.38
2023-10-25T08:04:28.167Z,7.37
2023-10-25T08:06:55.737Z,7.47
2023-10-25T08:09:22.522Z,7.47
2023-10-25T08:11:49.080Z,7.46
2023-10-25T08:14:15.595Z,7.49
2023-10-25T08:16:43.401Z,7.50
2023-10-25T08:19:10.437Z,7.54
2023-10-25T08:21:37.414Z,7.61
2023-10-25T08:24:06.484Z,7.65
2023-10-25T08:26:38.210Z,7.72
2023-10-25T08:29:05.632Z,7.74
2023-10-25T08:31:32.614Z,7.68
2023-10-25T08:34:00.327Z,7.71
2023-10-25T08:36:29.987Z,7.73
2023-10-25T08:38:57.177Z,7.74
2023-10-25T08:41:28.189Z,7.69
2023-10-25T08:43:55.269Z,7.83
2023-10-25T08:46:23.304Z,7.65
2023-10-25T08:48:53.611Z,7.84
2023-10-25T08:51:20.332Z,7.81
2023-10-25T08:53:49.832Z,7.82
2023-10-25T08:56:19.094Z,7.81
2023-10-25T08:58:45.896Z,7.93
2023-10-25T09:01:12.559Z,7.86
2023-10-25T09:03:40.976Z,7.80
2023-10-25T09:06:09.433Z,7.93
2023-10-25T09:08:36.625Z,7.82
2023-10-25T09:11:04.003Z,7.82
2023-10-25T09:13:32.134Z,7.83
2023-10-25T09:16:10.246Z,7.85
2023-10-25T09:18:38.554Z,7.88
2023-10-25T09:21:11.463Z,7.79
2023-10-25T09:23:39.191Z,7.94
2023-10-25T09:26:16.337Z,7.84
2023-10-25T09:28:44.206Z,7.93
2023-10-25T09:31:28.851Z,7.89
2023-10-25T09:34:00.413Z,7.91
2023-10-25T09:36:28.406Z,7.98
2023-10-25T09:38:56.152Z,7.82
2023-10-25T09:41:24.863Z,7.89
2023-10-25T09:43:53.168Z,7.91
2023-10-25T09:46:24.393Z,7.85
2023-10-25T09:48:59.952Z,7.82
2023-10-25T09:51:56.610Z,7.83
2023-10-25T09:54:30.777Z,7.93
2023-10-25T09:56:57.846Z,7.78
2023-10-25T09:59:26.524Z,7.82
2023-10-25T10:01:55.204Z,7.91
2023-10-25T10:04:55.877Z,7.88
2023-10-25T10:07:35.491Z,7.98
2023-10-25T10:10:21.958Z,7.98
2023-10-25T10:12:49.051Z,7.90
2023-10-25T10:15:15.755Z,7.88
2023-10-25T10:17:45.849Z,7.93
2023-10-25T10:20:29.249Z,7.99
2023-10-25T10:23:05.939Z,7.89
2023-10-25T10:25:46.786Z,7.84
2023-10-25T10:28:14.187Z,7.93
2023-10-25T10:30:42.290Z,8.00
2023-10-25T10:33:14.283Z,8.11
2023-10-25T10:35:46.168Z,8.03
2023-10-25T10:38:12.899Z,8.18
2023-10-25T10:40:39.520Z,8.11
2023-10-25T10:43:07.471Z,8.10
2023-10-25T10:45:34.796Z,8.07
2023-10-25T10:48:21.973Z,8.18
2023-10-25T10:50:50.386Z,8.25
2023-10-25T10:53:17.104Z,8.27
2023-10-25T10:55:44.884Z,8.18
2023-10-25T10:58:12.493Z,8.17
2023-10-25T11:00:45.945Z,8.17
2023-10-25T11:03:12.608Z,8.18
2023-10-25T11:05:39.376Z,8.31
2023-10-25T11:08:12.358Z,8.28
2023-10-25T11:10:40.343Z,8.33
2023-10-25T11:13:08.679Z,8.25
2023-10-25T11:15:35.138Z,8.44
2023-10-25T11:18:02.615Z,8.51
2023-10-25T11:20:29.178Z,8.44
2023-10-25T11:22:56.921Z,8.41
2023-10-25T11:25:28.695Z,8.44
2023-10-25T11:27:57.218Z,8.44
2023-10-25T11:30:25.136Z,8.47
2023-10-25T11:32:53.649Z,8.52
2023-10-25T11:35:25.883Z,8.55
2023-10-25T11:37:54.003Z,8.48
2023-10-25T11:40:21.167Z,8.35
2023-10-25T11:42:47.874Z,8.27
2023-10-25T11:45:18.849Z,8.33
2023-10-25T11:47:49.418Z,8.38
2023-10-25T11:50:16.235Z,8.22
2023-10-25T11:52:42.782Z,8.19
2023-10-25T11:55:11.350Z,8.18
2023-10-25T11:57:40.117Z,8.18
2023-10-25T12:00:10.091Z,8.32
2023-10-25T12:02:40.229Z,8.46
2023-10-25T12:05:07.047Z,8.33
2023-10-25T12:07:33.542Z,8.31
2023-10-25T12:10:00.607Z,8.15
2023-10-25T12:12:27.307Z,8.22
2023-10-25T12:14:53.847Z,8.37
2023-10-25T12:17:20.360Z,8.38
2023-10-25T12:19:49.387Z,8.33
2023-10-25T12:22:16.231Z,8.40
2023-10-25T12:24:44.940Z,8.52
2023-10-25T12:27:14.005Z,8.53
2023-10-25T12:29:40.656Z,8.53
2023-10-25T12:32:08.134Z,8.49
2023-10-25T12:34:34.878Z,8.48
2023-10-25T12:37:01.438Z,8.62
2023-10-25T12:39:28.175Z,8.70
2023-10-25T12:41:54.799Z,8.73
2023-10-25T12:44:21.550Z,8.70
2023-10-25T12:46:48.113Z,8.77
2023-10-25T12:49:16.823Z,8.59
2023-10-25T12:51:43.644Z,8.80
2023-10-25T12:54:10.194Z,8.92
2023-10-25T12:56:38.679Z,8.85
2023-10-25T12:59:05.400Z,8.95
2023-10-25T13:01:32.013Z,9.05
2023-10-25T13:04:00.009Z,9.09
2023-10-25T13:06:28.105Z,9.17
2023-10-25T13:08:56.584Z,9.12
2023-10-25T13:11:23.287Z,9.11
2023-10-25T13:13:49.974Z,9.11
2023-10-25T13:16:16.653Z,9.16
2023-10-25T13:18:43.444Z,9.19
2023-10-25T13:21:13.236Z,9.14
2023-10-25T13:23:39.907Z,9.14
2023-10-25T13:26:07.667Z,9.16
2023-10-25T13:28:34.128Z,9.20
2023-10-25T13:31:00.825Z,9.26
2023-10-25T13:33:27.785Z,9.29
2023-10-25T13:35:54.846Z,9.32
2023-10-25T13:38:21.323Z,9.33
2023-10-25T13:40:49.376Z,9.30
2023-10-25T13:43:17.026Z,9.34
2023-10-25T13:45:46.005Z,9.35
2023-10-25T13:48:13.135Z,9.35
2023-10-25T13:50:40.019Z,9.37
2023-10-25T13:53:06.582Z,9.47
2023-10-25T13:55:38.010Z,9.48
2023-10-25T13:58:04.497Z,9.52
2023-10-25T14:00:31.351Z,9.47
2023-10-25T14:02:57.917Z,9.45
2023-10-25T14:05:24.586Z,9.57
2023-10-25T14:07:51.098Z,9.64
2023-10-25T14:10:17.863Z,9.61
2023-10-25T14:12:44.406Z,9.64
2023-10-25T14:15:11.638Z,9.71
2023-10-25T14:17:39.345Z,9.74
2023-10-25T14:20:06.778Z,9.77
2023-10-25T14:22:33.302Z,9.75
2023-10-25T14:24:59.851Z,9.77
2023-10-25T14:27:26.333Z,9.79
2023-10-25T14:29:52.882Z,9.82
2023-10-25T14:32:19.502Z,9.82
2023-10-25T14:34:46.567Z,9.80
2023-10-25T14:37:13.126Z,9.85
2023-10-25T14:39:39.605Z,9.88
2023-10-25T14:42:06.427Z,9.86
2023-10-25T14:44:33.207Z,9.90
2023-10-25T14:47:00.348Z,9.95
2023-10-25T14:49:26.936Z,9.96
2023-10-25T14:51:53.436Z,9.99
2023-10-25T14:54:19.884Z,9.92
2023-10-25T14:56:46.592Z,9.86
2023-10-25T14:59:13.091Z,9.83
2023-10-25T15:01:39.802Z,9.77
2023-10-25T15:04:06.772Z,9.74
2023-10-25T15:06:33.499Z,9.78
2023-10-25T15:09:00.013Z,9.82
2023-10-25T15:11:26.727Z,9.71
2023-10-25T15:13:53.221Z,9.57
2023-10-25T15:16:20.047Z,9.68
2023-10-25T15:18:46.747Z,9.67
2023-10-25T15:21:14.896Z,9.69
2023-10-25T15:23:41.983Z,9.71
2023-10-25T15:26:08.809Z,9.63
2023-10-25T15:28:36.958Z,9.75
2023-10-25T15:31:09.132Z,9.70
2023-10-25T15:33:37.043Z,9.61
2023-10-25T15:36:04.810Z,9.69
2023-10-25T15:38:31.960Z,9.68
2023-10-25T15:41:22.415Z,9.59
2023-10-25T15:43:49.254Z,9.59
2023-10-25T15:46:21.726Z,9.44
2023-10-25T15:48:53.678Z,9.42
2023-10-25T15:51:23.830Z,9.43
2023-10-25T15:53:54.740Z,9.43
2023-10-25T15:56:22.078Z,9.47
2023-10-25T15:58:48.552Z,9.47
2023-10-25T16:01:31.805Z,9.44
2023-10-25T16:04:05.645Z,9.46
2023-10-25T16:06:32.516Z,9.42
2023-10-25T16:08:59.154Z,9.31
2023-10-25T16:11:30.237Z,9.45
2023-10-25T16:13:56.764Z,9.44
2023-10-25T16:16:23.313Z,9.45
2023-10-25T16:18:49.921Z,9.44
2023-10-25T16:21:18.500Z,9.41
2023-10-25T16:23:46.600Z,9.34
2023-10-25T16:26:14.873Z,9.28
2023-10-25T16:28:43.440Z,9.27
2023-10-25T16:31:10.273Z,9.28
2023-10-25T16:33:42.268Z,9.33
2023-10-25T16:36:12.494Z,9.26
2023-10-25T16:38:39.400Z,9.28
2023-10-25T16:41:13.968Z,9.38
2023-10-25T16:43:41.284Z,9.35
2023-10-25T16:46:09.064Z,9.37
2023-10-25T16:48:37.475Z,9.43
2023-10-25T16:51:12.059Z,9.35
2023-10-25T16:53:46.211Z,9.36
2023-10-25T16:56:14.095Z,9.38
2023-10-25T16:58:46.621Z,9.41
2023-10-25T17:01:14.986Z,9.40
2023-10-25T17:03:45.521Z,9.42
2023-10-25T17:06:13.721Z,9.38
2023-10-25T17:08:41.479Z,9.31
2023-10-25T17:11:09.630Z,9.38
2023-10-25T17:13:38.077Z,9.38
2023-10-25T17:16:05.775Z,9.34
2023-10-25T17:18:37.178Z,9.36
2023-10-25T17:21:09.758Z,9.40
2023-10-25T17:23:37.421Z,9.40
2023-10-25T17:26:04.885Z,9.40
2023-10-25T17:28:32.970Z,9.37
2023-10-25T17:31:01.086Z,9.36
2023-10-25T17:33:28.631Z,9.39
2023-10-25T17:35:55.778Z,9.37
2023-10-25T17:38:22.502Z,9.40
2023-10-25T17:40:50.051Z,9.40
2023-10-25T17:43:16.819Z,9.34
2023-10-25T17:46:00.371Z,9.42
2023-10-25T17:48:38.905Z,9.45
2023-10-25T17:51:10.057Z,9.41
2023-10-25T17:53:37.128Z,9.40
2023-10-25T17:56:04.362Z,9.43
2023-10-25T17:58:31.165Z,9.42
2023-10-25T18:00:57.711Z,9.49
2023-10-25T18:03:25.127Z,9.51
2023-10-25T18:05:52.299Z,9.56
2023-10-25T18:08:25.514Z,9.62
2023-10-25T18:10:55.339Z,9.61
2023-10-25T18:13:22.056Z,9.59
2023-10-25T18:15:48.626Z,9.68
2023-10-25T18:18:15.426Z,9.69
2023-10-25T18:20:42.452Z,9.70
2023-10-25T18:23:09.439Z,9.69
2023-10-25T18:25:36.164Z,9.69
2023-10-25T18:28:02.648Z,9.66
2023-10-25T18:31:55.798Z,9.70
2023-10-25T18:33:20.212Z,9.68
2023-10-25T18:35:48.650Z,9.62
2023-10-25T18:38:18.195Z,9.64
2023-10-25T18:40:45.555Z,9.62
2023-10-25T18:43:15.011Z,9.60
2023-10-25T18:45:41.652Z,9.62
2023-10-25T18:48:08.239Z,9.62
2023-10-25T18:50:36.063Z,9.64
2023-10-25T18:53:02.612Z,9.67
2023-10-25T18:55:29.451Z,9.71
2023-10-25T18:57:56.040Z,9.67
2023-10-25T19:00:24.913Z,9.63
2023-10-25T19:02:57.967Z,9.41
2023-10-25T19:06:25.456Z,9.61
2023-10-25T19:08:26.685Z,9.67
2023-10-25T19:10:54.379Z,9.66
2023-10-25T19:13:20.956Z,9.65
2023-10-25T19:15:47.808Z,9.63
2023-10-25T19:18:15.817Z,9.50
2023-10-25T19:20:42.769Z,9.55
2023-10-25T19:23:09.687Z,9.51
2023-10-25T19:25:37.266Z,9.51
2023-10-25T19:28:04.165Z,9.52
2023-10-25T19:30:31.918Z,9.50
2023-10-25T19:32:58.958Z,9.44
2023-10-25T19:35:25.740Z,9.39
2023-10-25T19:37:52.374Z,9.44
2023-10-25T19:40:19.362Z,9.36
2023-10-25T19:42:45.916Z,9.33
2023-10-25T19:45:14.657Z,9.38
2023-10-25T19:47:41.640Z,9.36
2023-10-25T19:50:10.529Z,9.35
2023-10-25T19:52:37.038Z,9.33
2023-10-25T19:55:04.449Z,9.32
2023-10-25T19:57:30.939Z,9.29
2023-10-25T19:59:57.424Z,9.32
2023-10-25T20:02:24.167Z,9.28
2023-10-25T20:04:50.642Z,9.34
2023-10-25T20:07:17.271Z,9.28
2023-10-25T20:09:46.143Z,9.31
2023-10-25T20:12:12.687Z,9.28
2023-10-25T20:14:39.192Z,9.26
2023-10-25T20:17:05.811Z,9.28
2023-10-25T20:19:32.261Z,9.17
2023-10-25T20:21:58.909Z,9.16
2023-10-25T20:24:25.417Z,9.21
2023-10-25T20:26:52.000Z,9.21
2023-10-25T20:29:18.557Z,9.15
2023-10-25T20:31:45.465Z,9.15
2023-10-25T20:34:11.948Z,9.18
2023-10-25T20:36:40.345Z,9.14
2023-10-25T20:39:06.850Z,9.13
2023-10-25T20:41:33.362Z,9.20
2023-10-25T20:43:59.995Z,9.21
2023-10-25T20:46:26.551Z,9.18
2023-10-25T20:48:53.857Z,9.11
2023-10-25T20:51:23.776Z,9.25
2023-10-25T20:53:52.029Z,9.23
2023-10-25T20:56:18.686Z,9.23
2023-10-25T20:58:46.365Z,9.19
2023-10-25T21:01:12.918Z,9.22
2023-10-25T21:03:39.696Z,9.20
2023-10-25T21:06:06.926Z,9.18
2023-10-25T21:08:33.538Z,9.09
2023-10-25T21:11:02.933Z,9.11
2023-10-25T21:13:29.583Z,9.11
2023-10-25T21:15:56.266Z,9.10
2023-10-25T21:18:23.524Z,9.15
2023-10-25T21:20:50.822Z,9.12
2023-10-25T21:23:17.792Z,9.12
2023-10-25T21:25:44.947Z,9.20
2023-10-25T21:28:12.017Z,9.14
2023-10-25T21:30:39.324Z,9.13
2023-10-25T21:33:07.378Z,9.11
2023-10-25T21:35:34.451Z,9.13
2023-10-25T21:38:01.072Z,9.07
2023-10-25T21:40:27.670Z,9.10
2023-10-25T21:42:54.313Z,9.18
2023-10-25T21:45:21.078Z,9.17
2023-10-25T21:47:50.144Z,9.22
2023-10-25T21:50:17.064Z,9.21
2023-10-25T21:52:43.861Z,9.25
2023-10-25T21:55:10.413Z,9.22
2023-10-25T21:59:47.150Z,9.25
2023-10-25T22:00:23.690Z,9.26
2023-10-25T22:02:50.507Z,9.29
2023-10-25T22:05:17.239Z,9.28
2023-10-25T22:07:43.833Z,9.27
2023-10-25T22:10:10.407Z,9.31
2023-10-25T22:12:36.965Z,9.21
2023-10-25T22:15:05.798Z,9.26
2023-10-25T22:17:32.347Z,9.13
2023-10-25T22:19:59.144Z,9.26
2023-10-25T22:22:25.598Z,9.18
2023-10-25T22:24:52.053Z,9.11
2023-10-25T22:27:18.620Z,9.04
2023-10-25T22:29:45.406Z,9.07
2023-10-25T22:32:11.860Z,9.07
2023-10-25T22:34:38.556Z,9.04
2023-10-25T22:37:05.045Z,9.05
2023-10-25T22:39:31.628Z,9.05
2023-10-25T22:41:59.309Z,9.02
2023-10-25T22:44:26.179Z,8.86
2023-10-25T22:46:52.681Z,8.85
2023-10-25T22:49:20.856Z,8.92
2023-10-25T22:51:47.515Z,8.93
2023-10-25T22:54:14.715Z,8.94
2023-10-25T22:56:41.374Z,8.91
2023-10-25T22:59:08.073Z,8.89
2023-10-25T23:01:34.718Z,8.80
2023-10-25T23:04:01.576Z,8.84
2023-10-25T23:06:28.198Z,8.84
2023-10-25T23:08:54.984Z,8.86
2023-10-25T23:11:21.737Z,8.85
2023-10-25T23:13:51.726Z,8.81
2023-10-25T23:16:18.387Z,8.71
2023-10-25T23:18:45.044Z,8.76
2023-10-25T23:21:11.878Z,8.72
2023-10-25T23:23:38.505Z,8.79
2023-10-25T23:26:09.195Z,8.66
2023-10-25T23:28:36.752Z,8.64
2023-10-25T23:31:07.759Z,8.71
2023-10-25T23:33:35.517Z,8.69
2023-10-25T23:36:03.259Z,8.63
2023-10-25T23:38:30.671Z,8.61
2023-10-25T23:40:58.968Z,8.64
2023-10-25T23:43:26.120Z,8.63
2023-10-25T23:45:52.903Z,8.63
2023-10-25T23:48:20.041Z,8.65
2023-10-25T23:50:47.719Z,8.63
2023-10-25T23:53:15.258Z,8.66
2023-10-25T23:55:43.260Z,8.59
2023-10-25T23:58:10.665Z,8.56
